sensor_id;sensor_type;location;lat;lon;timestamp;temperature;humidity
3994;DHT22;2011;48.238;13.948;2023-06-26T00:01:31;19.70;98.00
3994;DHT22;2011;48.238;13.948;2023-06-26T00:04:01;19.70;98.80
3994;DHT22;2011;48.238;13.948;2023-06-26T00:06:28;19.70;99.90
3994;DHT22;2011;48.238;13.948;2023-06-26T00:08:55;19.60;99.80
3994;DHT22;2011;48.238;13.948;2023-06-26T00:11:24;19.60;99.80
3994;DHT22;2011;48.238;13.948;2023-06-26T00:13:53;19.50;99.90
3994;DHT22;2011;48.238;13.948;2023-06-26T00:16:20;19.40;99.90
3994;DHT22;2011;48.238;13.948;2023-06-26T00:18:47;19.40;99.90
3994;DHT22;2011;48.238;13.948;2023-06-26T00:21:15;19.40;99.90
3994;DHT22;2011;48.238;13.948;2023-06-26T00:23:42;19.40;99.90
3994;DHT22;2011;48.238;13.948;2023-06-26T00:26:10;19.40;99.90
3994;DHT22;2011;48.238;13.948;2023-06-26T00:28:37;19.30;99.90
3994;DHT22;2011;48.238;13.948;2023-06-26T00:31:04;19.20;99.90
3994;DHT22;2011;48.238;13.948;2023-06-26T00:33:31;19.10;99.90
3994;DHT22;2011;48.238;13.948;2023-06-26T00:35:58;19.10;99.90
3994;DHT22;2011;48.238;13.948;2023-06-26T00:38:27;19.00;99.90
3994;DHT22;2011;48.238;13.948;2023-06-26T00:40:54;19.00;99.90
3994;DHT22;2011;48.238;13.948;2023-06-26T00:43:21;19.00;99.90
3994;DHT22;2011;48.238;13.948;2023-06-26T00:45:48;19.00;99.90
3994;DHT22;2011;48.238;13.948;2023-06-26T00:48:16;18.90;99.90
3994;DHT22;2011;48.238;13.948;2023-06-26T00:50:43;18.90;99.90
3994;DHT22;2011;48.238;13.948;2023-06-26T00:53:11;18.90;99.90
3994;DHT22;2011;48.238;13.948;2023-06-26T00:55:40;18.80;99.90
3994;DHT22;2011;48.238;13.948;2023-06-26T00:58:07;18.80;99.90
3994;DHT22;2011;48.238;13.948;2023-06-26T01:00:34;18.80;99.90
3994;DHT22;2011;48.238;13.948;2023-06-26T01:03:01;18.80;99.90
3994;DHT22;2011;48.238;13.948;2023-06-26T01:05:29;18.70;99.90
3994;DHT22;2011;48.238;13.948;2023-06-26T01:07:57;18.70;99.90
3994;DHT22;2011;48.238;13.948;2023-06-26T01:10:25;18.70;99.90
3994;DHT22;2011;48.238;13.948;2023-06-26T01:12:57;18.70;99.90
3994;DHT22;2011;48.238;13.948;2023-06-26T01:15:24;18.70;99.90
3994;DHT22;2011;48.238;13.948;2023-06-26T01:17:51;18.70;99.90
3994;DHT22;2011;48.238;13.948;2023-06-26T01:20:19;18.70;99.90
3994;DHT22;2011;48.238;13.948;2023-06-26T01:22:56;18.70;99.90
3994;DHT22;2011;48.238;13.948;2023-06-26T01:25:35;18.60;99.90
3994;DHT22;2011;48.238;13.948;2023-06-26T01:28:06;18.60;99.90
3994;DHT22;2011;48.238;13.948;2023-06-26T01:30:37;18.60;99.90
3994;DHT22;2011;48.238;13.948;2023-06-26T01:33:04;18.50;99.90
3994;DHT22;2011;48.238;13.948;2023-06-26T01:35:33;18.50;99.90
3994;DHT22;2011;48.238;13.948;2023-06-26T01:38:12;18.50;99.90
3994;DHT22;2011;48.238;13.948;2023-06-26T01:40:39;18.40;99.90
3994;DHT22;2011;48.238;13.948;2023-06-26T01:43:12;18.40;99.90
3994;DHT22;2011;48.238;13.948;2023-06-26T01:45:40;18.40;99.90
3994;DHT22;2011;48.238;13.948;2023-06-26T01:48:08;18.30;99.90
3994;DHT22;2011;48.238;13.948;2023-06-26T01:50:37;18.30;99.90
3994;DHT22;2011;48.238;13.948;2023-06-26T01:53:11;18.30;99.90
3994;DHT22;2011;48.238;13.948;2023-06-26T01:55:43;18.20;99.90
3994;DHT22;2011;48.238;13.948;2023-06-26T01:58:13;18.20;99.90
3994;DHT22;2011;48.238;13.948;2023-06-26T02:00:42;18.10;99.90
3994;DHT22;2011;48.238;13.948;2023-06-26T02:03:09;18.10;99.90
3994;DHT22;2011;48.238;13.948;2023-06-26T02:05:37;18.10;99.90
3994;DHT22;2011;48.238;13.948;2023-06-26T02:08:04;18.10;99.90
3994;DHT22;2011;48.238;13.948;2023-06-26T02:10:31;18.10;99.90
3994;DHT22;2011;48.238;13.948;2023-06-26T02:12:58;18.00;99.90
3994;DHT22;2011;48.238;13.948;2023-06-26T02:15:27;18.00;99.90
3994;DHT22;2011;48.238;13.948;2023-06-26T02:17:54;17.90;99.90
3994;DHT22;2011;48.238;13.948;2023-06-26T02:20:21;17.90;99.90
3994;DHT22;2011;48.238;13.948;2023-06-26T02:22:48;17.90;99.90
3994;DHT22;2011;48.238;13.948;2023-06-26T02:25:15;18.00;99.90
3994;DHT22;2011;48.238;13.948;2023-06-26T02:27:42;18.00;99.90
3994;DHT22;2011;48.238;13.948;2023-06-26T02:30:10;18.00;99.90
3994;DHT22;2011;48.238;13.948;2023-06-26T02:32:38;17.90;99.90
3994;DHT22;2011;48.238;13.948;2023-06-26T02:35:06;17.90;99.90
3994;DHT22;2011;48.238;13.948;2023-06-26T02:37:34;17.90;99.90
3994;DHT22;2011;48.238;13.948;2023-06-26T02:40:01;17.80;99.90
3994;DHT22;2011;48.238;13.948;2023-06-26T02:42:29;17.80;99.90
3994;DHT22;2011;48.238;13.948;2023-06-26T02:44:56;17.70;99.90
3994;DHT22;2011;48.238;13.948;2023-06-26T02:47:23;17.70;99.90
3994;DHT22;2011;48.238;13.948;2023-06-26T02:49:52;17.70;99.90
3994;DHT22;2011;48.238;13.948;2023-06-26T02:52:19;17.70;99.90
3994;DHT22;2011;48.238;13.948;2023-06-26T02:54:46;17.70;99.90
3994;DHT22;2011;48.238;13.948;2023-06-26T02:57:14;17.60;99.90
3994;DHT22;2011;48.238;13.948;2023-06-26T02:59:42;17.60;99.90
3994;DHT22;2011;48.238;13.948;2023-06-26T03:05:35;17.50;99.90
3994;DHT22;2011;48.238;13.948;2023-06-26T03:08:04;17.50;99.90
3994;DHT22;2011;48.238;13.948;2023-06-26T03:10:32;17.50;99.90
3994;DHT22;2011;48.238;13.948;2023-06-26T03:12:59;17.50;99.90
3994;DHT22;2011;48.238;13.948;2023-06-26T03:15:26;17.50;99.90
3994;DHT22;2011;48.238;13.948;2023-06-26T03:17:54;17.40;99.90
3994;DHT22;2011;48.238;13.948;2023-06-26T03:20:21;17.40;99.90
3994;DHT22;2011;48.238;13.948;2023-06-26T03:22:49;17.40;99.90
3994;DHT22;2011;48.238;13.948;2023-06-26T03:25:16;17.40;99.90
3994;DHT22;2011;48.238;13.948;2023-06-26T03:27:43;17.40;99.90
3994;DHT22;2011;48.238;13.948;2023-06-26T03:30:11;17.40;99.90
3994;DHT22;2011;48.238;13.948;2023-06-26T03:32:38;17.40;99.90
3994;DHT22;2011;48.238;13.948;2023-06-26T03:35:06;17.40;99.90
3994;DHT22;2011;48.238;13.948;2023-06-26T03:37:35;17.40;99.90
3994;DHT22;2011;48.238;13.948;2023-06-26T03:40:03;17.40;99.90
3994;DHT22;2011;48.238;13.948;2023-06-26T03:42:31;17.40;99.90
3994;DHT22;2011;48.238;13.948;2023-06-26T03:44:58;17.40;99.90
3994;DHT22;2011;48.238;13.948;2023-06-26T03:47:25;17.40;99.90
3994;DHT22;2011;48.238;13.948;2023-06-26T03:49:52;17.40;99.90
3994;DHT22;2011;48.238;13.948;2023-06-26T03:52:19;17.40;99.90
3994;DHT22;2011;48.238;13.948;2023-06-26T03:54:46;17.40;99.90
3994;DHT22;2011;48.238;13.948;2023-06-26T03:57:15;17.40;99.90
3994;DHT22;2011;48.238;13.948;2023-06-26T03:59:42;17.40;99.90
3994;DHT22;2011;48.238;13.948;2023-06-26T04:02:10;17.40;99.90
3994;DHT22;2011;48.238;13.948;2023-06-26T04:04:38;17.40;99.90
3994;DHT22;2011;48.238;13.948;2023-06-26T04:07:07;17.40;99.90
3994;DHT22;2011;48.238;13.948;2023-06-26T04:09:34;17.40;99.90
3994;DHT22;2011;48.238;13.948;2023-06-26T04:12:02;17.30;99.90
3994;DHT22;2011;48.238;13.948;2023-06-26T04:14:30;17.30;99.90
3994;DHT22;2011;48.238;13.948;2023-06-26T04:16:58;17.30;99.90
3994;DHT22;2011;48.238;13.948;2023-06-26T04:19:27;17.30;99.90
3994;DHT22;2011;48.238;13.948;2023-06-26T04:21:55;17.40;99.90
3994;DHT22;2011;48.238;13.948;2023-06-26T04:24:23;17.40;99.90
3994;DHT22;2011;48.238;13.948;2023-06-26T04:26:50;17.50;99.90
3994;DHT22;2011;48.238;13.948;2023-06-26T04:29:17;17.50;99.90
3994;DHT22;2011;48.238;13.948;2023-06-26T04:31:45;17.50;99.90
3994;DHT22;2011;48.238;13.948;2023-06-26T04:34:13;17.60;99.90
3994;DHT22;2011;48.238;13.948;2023-06-26T04:36:40;17.60;99.90
3994;DHT22;2011;48.238;13.948;2023-06-26T04:39:12;17.60;99.90
3994;DHT22;2011;48.238;13.948;2023-06-26T04:41:40;17.60;99.90
3994;DHT22;2011;48.238;13.948;2023-06-26T04:44:07;17.60;99.90
3994;DHT22;2011;48.238;13.948;2023-06-26T04:46:34;17.70;99.90
3994;DHT22;2011;48.238;13.948;2023-06-26T04:49:03;17.70;99.90
3994;DHT22;2011;48.238;13.948;2023-06-26T04:51:30;17.80;99.90
3994;DHT22;2011;48.238;13.948;2023-06-26T04:53:57;17.80;99.90
3994;DHT22;2011;48.238;13.948;2023-06-26T04:56:25;17.90;99.90
3994;DHT22;2011;48.238;13.948;2023-06-26T04:58:52;18.00;99.90
3994;DHT22;2011;48.238;13.948;2023-06-26T05:01:19;18.10;99.90
3994;DHT22;2011;48.238;13.948;2023-06-26T05:03:46;18.20;99.90
3994;DHT22;2011;48.238;13.948;2023-06-26T05:06:15;18.40;99.90
3994;DHT22;2011;48.238;13.948;2023-06-26T05:08:42;18.50;99.90
3994;DHT22;2011;48.238;13.948;2023-06-26T05:11:10;18.70;99.90
3994;DHT22;2011;48.238;13.948;2023-06-26T05:13:37;18.80;99.90
3994;DHT22;2011;48.238;13.948;2023-06-26T05:16:05;18.90;99.90
3994;DHT22;2011;48.238;13.948;2023-06-26T05:18:34;19.00;99.90
3994;DHT22;2011;48.238;13.948;2023-06-26T05:21:02;19.10;99.90
3994;DHT22;2011;48.238;13.948;2023-06-26T05:23:32;19.20;99.90
3994;DHT22;2011;48.238;13.948;2023-06-26T05:26:00;19.30;99.90
3994;DHT22;2011;48.238;13.948;2023-06-26T05:28:28;19.50;99.90
3994;DHT22;2011;48.238;13.948;2023-06-26T05:30:57;19.60;99.90
3994;DHT22;2011;48.238;13.948;2023-06-26T05:33:26;19.70;99.90
3994;DHT22;2011;48.238;13.948;2023-06-26T05:35:55;19.80;99.90
3994;DHT22;2011;48.238;13.948;2023-06-26T05:38:23;20.00;99.90
3994;DHT22;2011;48.238;13.948;2023-06-26T05:40:52;20.10;99.90
3994;DHT22;2011;48.238;13.948;2023-06-26T05:43:20;20.20;99.90
3994;DHT22;2011;48.238;13.948;2023-06-26T05:45:48;20.30;99.90
3994;DHT22;2011;48.238;13.948;2023-06-26T05:48:15;20.40;99.90
3994;DHT22;2011;48.238;13.948;2023-06-26T05:50:44;20.50;99.90
3994;DHT22;2011;48.238;13.948;2023-06-26T05:53:12;20.60;99.90
3994;DHT22;2011;48.238;13.948;2023-06-26T05:55:40;20.80;99.90
3994;DHT22;2011;48.238;13.948;2023-06-26T05:58:10;20.80;99.90
3994;DHT22;2011;48.238;13.948;2023-06-26T06:00:39;20.90;99.90
3994;DHT22;2011;48.238;13.948;2023-06-26T06:03:06;21.00;99.90
3994;DHT22;2011;48.238;13.948;2023-06-26T06:05:35;21.10;99.90
3994;DHT22;2011;48.238;13.948;2023-06-26T06:08:03;21.20;99.90
3994;DHT22;2011;48.238;13.948;2023-06-26T06:10:30;21.30;99.90
3994;DHT22;2011;48.238;13.948;2023-06-26T06:12:58;21.40;99.90
3994;DHT22;2011;48.238;13.948;2023-06-26T06:15:27;21.50;99.90
3994;DHT22;2011;48.238;13.948;2023-06-26T06:17:54;21.60;99.90
3994;DHT22;2011;48.238;13.948;2023-06-26T06:20:22;21.70;99.90
3994;DHT22;2011;48.238;13.948;2023-06-26T06:22:49;21.70;99.90
3994;DHT22;2011;48.238;13.948;2023-06-26T06:25:17;21.90;99.90
3994;DHT22;2011;48.238;13.948;2023-06-26T06:27:44;22.00;99.90
3994;DHT22;2011;48.238;13.948;2023-06-26T06:30:12;22.00;99.90
3994;DHT22;2011;48.238;13.948;2023-06-26T06:32:41;22.00;99.90
3994;DHT22;2011;48.238;13.948;2023-06-26T06:35:09;22.10;99.90
3994;DHT22;2011;48.238;13.948;2023-06-26T06:37:36;22.20;99.90
3994;DHT22;2011;48.238;13.948;2023-06-26T06:40:05;22.30;99.90
3994;DHT22;2011;48.238;13.948;2023-06-26T06:42:34;22.50;99.90
3994;DHT22;2011;48.238;13.948;2023-06-26T06:45:02;22.60;99.90
3994;DHT22;2011;48.238;13.948;2023-06-26T06:47:30;22.70;99.90
3994;DHT22;2011;48.238;13.948;2023-06-26T06:50:00;22.80;99.90
3994;DHT22;2011;48.238;13.948;2023-06-26T06:52:34;22.90;99.90
3994;DHT22;2011;48.238;13.948;2023-06-26T06:55:02;22.90;99.90
3994;DHT22;2011;48.238;13.948;2023-06-26T06:57:32;23.00;99.30
3994;DHT22;2011;48.238;13.948;2023-06-26T07:00:02;23.10;98.80
3994;DHT22;2011;48.238;13.948;2023-06-26T07:02:32;23.20;98.80
3994;DHT22;2011;48.238;13.948;2023-06-26T07:05:01;23.20;98.00
3994;DHT22;2011;48.238;13.948;2023-06-26T07:07:30;23.40;98.50
3994;DHT22;2011;48.238;13.948;2023-06-26T07:09:58;23.50;98.30
3994;DHT22;2011;48.238;13.948;2023-06-26T07:12:26;23.60;98.10
3994;DHT22;2011;48.238;13.948;2023-06-26T07:14:53;23.70;98.70
3994;DHT22;2011;48.238;13.948;2023-06-26T07:17:20;23.80;98.20
3994;DHT22;2011;48.238;13.948;2023-06-26T07:19:49;23.90;97.50
3994;DHT22;2011;48.238;13.948;2023-06-26T07:22:18;24.00;97.10
3994;DHT22;2011;48.238;13.948;2023-06-26T07:24:46;24.10;96.40
3994;DHT22;2011;48.238;13.948;2023-06-26T07:27:14;24.10;96.70
3994;DHT22;2011;48.238;13.948;2023-06-26T07:29:42;24.20;96.90
3994;DHT22;2011;48.238;13.948;2023-06-26T07:32:09;24.30;97.30
3994;DHT22;2011;48.238;13.948;2023-06-26T07:34:38;24.40;96.90
3994;DHT22;2011;48.238;13.948;2023-06-26T07:37:07;24.50;96.30
3994;DHT22;2011;48.238;13.948;2023-06-26T07:39:36;24.60;96.00
3994;DHT22;2011;48.238;13.948;2023-06-26T07:42:03;24.70;95.50
3994;DHT22;2011;48.238;13.948;2023-06-26T07:44:31;24.80;95.40
3994;DHT22;2011;48.238;13.948;2023-06-26T07:46:59;24.90;95.50
3994;DHT22;2011;48.238;13.948;2023-06-26T07:49:27;24.90;95.20
3994;DHT22;2011;48.238;13.948;2023-06-26T07:51:54;25.00;94.80
3994;DHT22;2011;48.238;13.948;2023-06-26T07:54:22;25.10;94.80
3994;DHT22;2011;48.238;13.948;2023-06-26T07:56:55;25.20;94.70
3994;DHT22;2011;48.238;13.948;2023-06-26T07:59:23;25.20;93.30
3994;DHT22;2011;48.238;13.948;2023-06-26T08:01:51;25.30;93.50
3994;DHT22;2011;48.238;13.948;2023-06-26T08:04:21;25.40;93.40
3994;DHT22;2011;48.238;13.948;2023-06-26T08:06:50;25.40;94.00
3994;DHT22;2011;48.238;13.948;2023-06-26T08:09:22;25.60;93.80
3994;DHT22;2011;48.238;13.948;2023-06-26T08:11:50;25.70;92.60
3994;DHT22;2011;48.238;13.948;2023-06-26T08:14:19;25.70;92.80
3994;DHT22;2011;48.238;13.948;2023-06-26T08:16:48;25.80;92.50
3994;DHT22;2011;48.238;13.948;2023-06-26T08:19:18;25.80;91.80
3994;DHT22;2011;48.238;13.948;2023-06-26T08:21:46;26.00;92.10
3994;DHT22;2011;48.238;13.948;2023-06-26T08:24:14;26.10;92.40
3994;DHT22;2011;48.238;13.948;2023-06-26T08:26:45;26.20;92.10
3994;DHT22;2011;48.238;13.948;2023-06-26T08:29:12;26.30;92.40
3994;DHT22;2011;48.238;13.948;2023-06-26T08:31:42;26.40;93.40
3994;DHT22;2011;48.238;13.948;2023-06-26T08:34:09;26.50;93.10
3994;DHT22;2011;48.238;13.948;2023-06-26T08:36:37;26.60;92.60
3994;DHT22;2011;48.238;13.948;2023-06-26T08:39:04;26.80;92.80
3994;DHT22;2011;48.238;13.948;2023-06-26T08:41:35;26.80;92.50
3994;DHT22;2011;48.238;13.948;2023-06-26T08:44:03;26.90;92.60
3994;DHT22;2011;48.238;13.948;2023-06-26T08:46:31;27.00;92.40
3994;DHT22;2011;48.238;13.948;2023-06-26T08:49:08;27.10;91.10
3994;DHT22;2011;48.238;13.948;2023-06-26T08:51:40;27.10;90.20
3994;DHT22;2011;48.238;13.948;2023-06-26T08:54:15;27.30;91.00
3994;DHT22;2011;48.238;13.948;2023-06-26T08:56:44;27.20;90.40
3994;DHT22;2011;48.238;13.948;2023-06-26T08:59:14;27.30;90.00
3994;DHT22;2011;48.238;13.948;2023-06-26T09:01:42;27.40;90.60
3994;DHT22;2011;48.238;13.948;2023-06-26T09:04:11;27.50;90.10
3994;DHT22;2011;48.238;13.948;2023-06-26T09:06:38;27.60;90.20
3994;DHT22;2011;48.238;13.948;2023-06-26T09:09:07;27.70;90.00
3994;DHT22;2011;48.238;13.948;2023-06-26T09:11:36;27.80;88.80
3994;DHT22;2011;48.238;13.948;2023-06-26T09:14:04;28.00;88.80
3994;DHT22;2011;48.238;13.948;2023-06-26T09:16:39;28.10;87.50
3994;DHT22;2011;48.238;13.948;2023-06-26T09:19:11;28.20;86.10
3994;DHT22;2011;48.238;13.948;2023-06-26T09:21:39;28.20;84.10
3994;DHT22;2011;48.238;13.948;2023-06-26T09:24:07;28.30;83.10
3994;DHT22;2011;48.238;13.948;2023-06-26T09:26:36;28.40;82.30
3994;DHT22;2011;48.238;13.948;2023-06-26T09:29:04;28.40;82.80
3994;DHT22;2011;48.238;13.948;2023-06-26T09:31:33;28.50;81.80
3994;DHT22;2011;48.238;13.948;2023-06-26T09:34:03;28.50;80.70
3994;DHT22;2011;48.238;13.948;2023-06-26T09:36:33;28.60;79.60
3994;DHT22;2011;48.238;13.948;2023-06-26T09:39:03;28.70;78.90
3994;DHT22;2011;48.238;13.948;2023-06-26T09:41:34;28.80;77.90
3994;DHT22;2011;48.238;13.948;2023-06-26T09:44:05;28.90;78.30
3994;DHT22;2011;48.238;13.948;2023-06-26T09:46:33;28.90;80.50
3994;DHT22;2011;48.238;13.948;2023-06-26T09:49:05;29.00;78.80
3994;DHT22;2011;48.238;13.948;2023-06-26T09:51:37;29.00;75.50
3994;DHT22;2011;48.238;13.948;2023-06-26T09:54:06;29.10;74.20
3994;DHT22;2011;48.238;13.948;2023-06-26T09:56:34;29.10;72.50
3994;DHT22;2011;48.238;13.948;2023-06-26T09:59:03;29.20;74.20
3994;DHT22;2011;48.238;13.948;2023-06-26T10:01:32;29.30;74.10
3994;DHT22;2011;48.238;13.948;2023-06-26T10:04:00;29.40;73.90
3994;DHT22;2011;48.238;13.948;2023-06-26T10:06:31;29.60;72.30
3994;DHT22;2011;48.238;13.948;2023-06-26T10:09:02;29.60;72.20
3994;DHT22;2011;48.238;13.948;2023-06-26T10:11:35;29.70;74.30
3994;DHT22;2011;48.238;13.948;2023-06-26T10:14:05;29.90;73.70
3994;DHT22;2011;48.238;13.948;2023-06-26T10:16:35;30.00;71.10
3994;DHT22;2011;48.238;13.948;2023-06-26T10:19:06;30.00;70.90
3994;DHT22;2011;48.238;13.948;2023-06-26T10:21:37;30.00;66.90
3994;DHT22;2011;48.238;13.948;2023-06-26T10:24:08;29.90;65.90
3994;DHT22;2011;48.238;13.948;2023-06-26T10:26:40;29.90;67.60
3994;DHT22;2011;48.238;13.948;2023-06-26T10:29:10;30.00;69.30
3994;DHT22;2011;48.238;13.948;2023-06-26T10:31:43;30.00;68.70
3994;DHT22;2011;48.238;13.948;2023-06-26T10:34:12;30.10;66.80
3994;DHT22;2011;48.238;13.948;2023-06-26T10:36:39;30.30;67.80
3994;DHT22;2011;48.238;13.948;2023-06-26T10:39:09;30.40;67.60
3994;DHT22;2011;48.238;13.948;2023-06-26T10:41:38;30.60;66.80
3994;DHT22;2011;48.238;13.948;2023-06-26T10:44:09;30.70;65.80
3994;DHT22;2011;48.238;13.948;2023-06-26T10:46:52;30.70;63.10
3994;DHT22;2011;48.238;13.948;2023-06-26T10:49:21;30.70;63.80
3994;DHT22;2011;48.238;13.948;2023-06-26T10:51:52;30.70;62.90
3994;DHT22;2011;48.238;13.948;2023-06-26T10:54:29;30.80;62.90
3994;DHT22;2011;48.238;13.948;2023-06-26T10:56:57;31.00;61.90
3994;DHT22;2011;48.238;13.948;2023-06-26T10:59:26;31.00;62.00
3994;DHT22;2011;48.238;13.948;2023-06-26T11:01:55;31.00;60.80
3994;DHT22;2011;48.238;13.948;2023-06-26T11:04:39;30.90;59.90
3994;DHT22;2011;48.238;13.948;2023-06-26T11:07:15;30.70;59.10
3994;DHT22;2011;48.238;13.948;2023-06-26T11:09:58;30.90;60.60
3994;DHT22;2011;48.238;13.948;2023-06-26T11:12:40;31.00;60.90
3994;DHT22;2011;48.238;13.948;2023-06-26T11:15:08;31.10;58.50
3994;DHT22;2011;48.238;13.948;2023-06-26T11:17:37;31.00;57.90
3994;DHT22;2011;48.238;13.948;2023-06-26T11:20:06;31.20;57.90
3994;DHT22;2011;48.238;13.948;2023-06-26T11:22:35;31.20;58.20
3994;DHT22;2011;48.238;13.948;2023-06-26T11:25:06;31.30;58.90
3994;DHT22;2011;48.238;13.948;2023-06-26T11:27:38;31.40;58.30
3994;DHT22;2011;48.238;13.948;2023-06-26T11:30:07;31.40;55.30
3994;DHT22;2011;48.238;13.948;2023-06-26T11:32:36;31.40;57.10
3994;DHT22;2011;48.238;13.948;2023-06-26T11:35:05;31.50;56.20
3994;DHT22;2011;48.238;13.948;2023-06-26T11:37:33;31.30;55.50
3994;DHT22;2011;48.238;13.948;2023-06-26T11:40:17;31.30;55.60
3994;DHT22;2011;48.238;13.948;2023-06-26T11:42:45;31.30;54.70
3994;DHT22;2011;48.238;13.948;2023-06-26T11:45:13;31.20;56.20
3994;DHT22;2011;48.238;13.948;2023-06-26T11:47:41;31.30;56.50
3994;DHT22;2011;48.238;13.948;2023-06-26T11:50:15;31.30;54.40
3994;DHT22;2011;48.238;13.948;2023-06-26T11:52:43;31.30;55.50
3994;DHT22;2011;48.238;13.948;2023-06-26T11:55:11;31.30;55.20
3994;DHT22;2011;48.238;13.948;2023-06-26T11:57:40;31.30;55.10
3994;DHT22;2011;48.238;13.948;2023-06-26T12:00:11;31.40;55.50
3994;DHT22;2011;48.238;13.948;2023-06-26T12:02:39;31.60;56.00
3994;DHT22;2011;48.238;13.948;2023-06-26T12:05:07;31.80;56.70
3994;DHT22;2011;48.238;13.948;2023-06-26T12:07:35;32.00;56.90
3994;DHT22;2011;48.238;13.948;2023-06-26T12:10:04;31.80;54.50
3994;DHT22;2011;48.238;13.948;2023-06-26T12:12:32;31.70;54.50
3994;DHT22;2011;48.238;13.948;2023-06-26T12:15:03;31.80;54.80
3994;DHT22;2011;48.238;13.948;2023-06-26T12:17:32;31.60;54.40
3994;DHT22;2011;48.238;13.948;2023-06-26T12:20:00;31.80;56.10
3994;DHT22;2011;48.238;13.948;2023-06-26T12:22:34;32.00;56.10
3994;DHT22;2011;48.238;13.948;2023-06-26T12:25:02;32.10;53.50
3994;DHT22;2011;48.238;13.948;2023-06-26T12:27:29;32.10;52.80
3994;DHT22;2011;48.238;13.948;2023-06-26T12:29:57;32.00;51.80
3994;DHT22;2011;48.238;13.948;2023-06-26T12:32:26;32.00;51.50
3994;DHT22;2011;48.238;13.948;2023-06-26T12:34:57;32.00;51.70
3994;DHT22;2011;48.238;13.948;2023-06-26T12:37:24;32.00;51.50
3994;DHT22;2011;48.238;13.948;2023-06-26T12:39:53;32.00;52.10
3994;DHT22;2011;48.238;13.948;2023-06-26T12:42:22;32.20;53.40
3994;DHT22;2011;48.238;13.948;2023-06-26T12:44:50;32.40;51.70
3994;DHT22;2011;48.238;13.948;2023-06-26T12:47:19;32.40;50.30
3994;DHT22;2011;48.238;13.948;2023-06-26T12:49:50;32.50;50.50
3994;DHT22;2011;48.238;13.948;2023-06-26T12:52:19;32.70;50.90
3994;DHT22;2011;48.238;13.948;2023-06-26T12:54:51;32.70;49.80
3994;DHT22;2011;48.238;13.948;2023-06-26T12:57:19;32.70;49.90
3994;DHT22;2011;48.238;13.948;2023-06-26T12:59:46;32.80;49.70
3994;DHT22;2011;48.238;13.948;2023-06-26T13:02:13;32.90;49.40
3994;DHT22;2011;48.238;13.948;2023-06-26T13:04:41;32.80;49.30
3994;DHT22;2011;48.238;13.948;2023-06-26T13:07:11;32.90;49.10
3994;DHT22;2011;48.238;13.948;2023-06-26T13:09:39;32.70;49.20
3994;DHT22;2011;48.238;13.948;2023-06-26T13:12:07;32.90;49.50
3994;DHT22;2011;48.238;13.948;2023-06-26T13:14:36;33.00;48.70
3994;DHT22;2011;48.238;13.948;2023-06-26T13:17:04;33.10;48.20
3994;DHT22;2011;48.238;13.948;2023-06-26T13:19:32;33.10;48.00
3994;DHT22;2011;48.238;13.948;2023-06-26T13:21:59;32.90;48.10
3994;DHT22;2011;48.238;13.948;2023-06-26T13:24:28;32.90;48.00
3994;DHT22;2011;48.238;13.948;2023-06-26T13:26:56;33.10;47.90
3994;DHT22;2011;48.238;13.948;2023-06-26T13:29:23;33.30;47.30
3994;DHT22;2011;48.238;13.948;2023-06-26T13:31:52;33.50;47.10
3994;DHT22;2011;48.238;13.948;2023-06-26T13:34:21;33.70;47.10
3994;DHT22;2011;48.238;13.948;2023-06-26T13:36:49;33.80;47.50
3994;DHT22;2011;48.238;13.948;2023-06-26T13:39:16;33.60;45.30
3994;DHT22;2011;48.238;13.948;2023-06-26T13:41:46;33.60;45.70
3994;DHT22;2011;48.238;13.948;2023-06-26T13:44:13;33.70;44.90
3994;DHT22;2011;48.238;13.948;2023-06-26T13:46:41;34.00;46.60
3994;DHT22;2011;48.238;13.948;2023-06-26T13:49:09;34.20;45.90
3994;DHT22;2011;48.238;13.948;2023-06-26T13:51:36;34.20;45.20
3994;DHT22;2011;48.238;13.948;2023-06-26T13:54:11;34.30;46.10
3994;DHT22;2011;48.238;13.948;2023-06-26T13:56:38;34.40;45.10
3994;DHT22;2011;48.238;13.948;2023-06-26T13:59:07;34.40;45.40
3994;DHT22;2011;48.238;13.948;2023-06-26T14:01:35;34.40;44.70
3994;DHT22;2011;48.238;13.948;2023-06-26T14:04:03;34.20;44.00
3994;DHT22;2011;48.238;13.948;2023-06-26T14:06:31;34.10;44.70
3994;DHT22;2011;48.238;13.948;2023-06-26T14:09:00;33.90;44.30
3994;DHT22;2011;48.238;13.948;2023-06-26T14:11:28;33.90;44.30
3994;DHT22;2011;48.238;13.948;2023-06-26T14:13:55;33.80;43.60
3994;DHT22;2011;48.238;13.948;2023-06-26T14:16:25;34.00;44.20
3994;DHT22;2011;48.238;13.948;2023-06-26T14:18:54;34.10;43.90
3994;DHT22;2011;48.238;13.948;2023-06-26T14:21:22;34.40;44.80
3994;DHT22;2011;48.238;13.948;2023-06-26T14:23:49;34.40;43.20
3994;DHT22;2011;48.238;13.948;2023-06-26T14:26:17;34.40;43.20
3994;DHT22;2011;48.238;13.948;2023-06-26T14:28:44;34.40;43.20
3994;DHT22;2011;48.238;13.948;2023-06-26T14:31:12;34.30;43.20
3994;DHT22;2011;48.238;13.948;2023-06-26T14:33:41;34.20;42.70
3994;DHT22;2011;48.238;13.948;2023-06-26T14:36:09;34.40;43.10
3994;DHT22;2011;48.238;13.948;2023-06-26T14:38:36;34.40;43.10
3994;DHT22;2011;48.238;13.948;2023-06-26T14:41:04;34.50;43.60
3994;DHT22;2011;48.238;13.948;2023-06-26T14:43:31;34.60;42.70
3994;DHT22;2011;48.238;13.948;2023-06-26T14:45:58;34.70;42.80
3994;DHT22;2011;48.238;13.948;2023-06-26T14:48:26;34.80;43.00
3994;DHT22;2011;48.238;13.948;2023-06-26T14:50:54;34.70;42.50
3994;DHT22;2011;48.238;13.948;2023-06-26T14:53:22;34.70;42.10
3994;DHT22;2011;48.238;13.948;2023-06-26T14:55:50;34.70;42.40
3994;DHT22;2011;48.238;13.948;2023-06-26T14:58:17;34.80;42.50
3994;DHT22;2011;48.238;13.948;2023-06-26T15:00:45;34.80;42.90
3994;DHT22;2011;48.238;13.948;2023-06-26T15:03:12;35.10;42.90
3994;DHT22;2011;48.238;13.948;2023-06-26T15:05:39;35.20;42.30
3994;DHT22;2011;48.238;13.948;2023-06-26T15:08:08;35.10;41.40
3994;DHT22;2011;48.238;13.948;2023-06-26T15:10:37;34.50;41.20
3994;DHT22;2011;48.238;13.948;2023-06-26T15:13:04;34.30;41.80
3994;DHT22;2011;48.238;13.948;2023-06-26T15:15:32;34.40;42.20
3994;DHT22;2011;48.238;13.948;2023-06-26T15:17:59;34.70;41.60
3994;DHT22;2011;48.238;13.948;2023-06-26T15:20:27;34.70;42.00
3994;DHT22;2011;48.238;13.948;2023-06-26T15:22:54;34.60;41.50
3994;DHT22;2011;48.238;13.948;2023-06-26T15:25:25;34.70;42.20
3994;DHT22;2011;48.238;13.948;2023-06-26T15:27:54;34.70;41.70
3994;DHT22;2011;48.238;13.948;2023-06-26T15:30:21;34.80;41.80
3994;DHT22;2011;48.238;13.948;2023-06-26T15:32:48;34.80;41.90
3994;DHT22;2011;48.238;13.948;2023-06-26T15:35:16;35.00;41.70
3994;DHT22;2011;48.238;13.948;2023-06-26T15:37:43;34.90;42.40
3994;DHT22;2011;48.238;13.948;2023-06-26T15:40:12;35.00;42.30
3994;DHT22;2011;48.238;13.948;2023-06-26T15:42:47;35.10;41.90
3994;DHT22;2011;48.238;13.948;2023-06-26T15:45:15;35.40;42.50
3994;DHT22;2011;48.238;13.948;2023-06-26T15:47:44;35.60;41.40
3994;DHT22;2011;48.238;13.948;2023-06-26T15:50:11;35.70;41.00
3994;DHT22;2011;48.238;13.948;2023-06-26T15:52:38;35.80;42.20
3994;DHT22;2011;48.238;13.948;2023-06-26T15:55:06;35.80;41.60
3994;DHT22;2011;48.238;13.948;2023-06-26T15:57:35;35.90;41.90